Capitol Logistics 927

Operating for DHL



EIDW
Dublin Airport
Dublin, IE
EGNX
East Midlands Airport
Derby, GB

Activity Log

Date Flight Route Aircraft Duration
05/04/2022 CPX927 DEXE1A DEXEN Y124 LUTIP UY124 AMPIT AMPI1E A30F 0h 57m
02/18/2022 CPX927 DEXE1A DEXEN Y124 LUTIP UY124 AMPIT AMPI1E B738 1h 17m
01/25/2022 CPX927 DEXE1A DEXEN Y124 LUTIP UY124 AMPIT AMPI1E A30F 0h 51m
01/23/2022 CPX927 DEXE1A DEXEN Y124 LUTIP UY124 AMPIT AMPI1E B738 1h 00m
01/11/2022 CPX1003 DEXE1A DEXEN Y124 LUTIP UY124 AMPIT AMPI1E B738 0h 50m

Route Details

Aircraft Information
Group: European Fleet
Types: A30F,A31F,B738
Route Data
Demand: L
Distance: 182nm
Duration: 1h 10m
Recm'd Route: DEXE1A DEXEN Y124 LUTIP UY124 AMPIT AMPI1E
Origin Wx: EIDW 270530Z 26009KT 9999 FEW026 08/04 Q1025 NOSIG
Dest. Wx: EGNX 270520Z 26011KT CAVOK 09/04 Q1023
Notes:

Financial History
Total Freight: 133,739lbs
Average Load: 26,748lbs/flt
Fuel Used: 38,586lbs
Avg. Fuel Used: 7,717lbs/flt
Fuel Expense: $15,300
Avg. Fuel Expense: $3,060
Avg. Fuel Cost: $0.38/lbs
Total Gross Income: $285,411
Pilot Pay: $755
Total Expenses: $40,468
Total Revenue: $229,149
Average Revenue: $57,082.20